createdAt,value
2019-05-18T00:00:09.847Z,31.80
2019-05-18T00:02:38.401Z,31.80
2019-05-18T00:05:07.354Z,31.70
2019-05-18T00:07:35.984Z,31.60
2019-05-18T00:10:05.432Z,31.60
2019-05-18T00:12:33.955Z,31.60
2019-05-18T00:15:02.564Z,31.60
2019-05-18T00:17:31.127Z,31.60
2019-05-18T00:19:59.688Z,31.70
2019-05-18T00:22:28.175Z,31.60
2019-05-18T00:24:56.582Z,31.70
2019-05-18T00:27:25.124Z,31.70
2019-05-18T00:29:53.682Z,31.50
2019-05-18T00:32:22.178Z,31.50
2019-05-18T00:34:50.804Z,31.50
2019-05-18T00:37:19.384Z,31.40
2019-05-18T00:39:47.870Z,31.50
2019-05-18T00:42:16.431Z,31.40
2019-05-18T00:44:44.993Z,31.50
2019-05-18T00:47:13.472Z,31.50
2019-05-18T00:49:42.168Z,31.50
2019-05-18T00:52:10.601Z,31.50
2019-05-18T00:54:39.088Z,31.60
2019-05-18T00:57:07.645Z,31.50
2019-05-18T00:59:37.054Z,31.50
2019-05-18T01:02:05.536Z,31.50
2019-05-18T01:04:34.071Z,31.50
2019-05-18T01:07:02.635Z,31.50
2019-05-18T01:09:31.165Z,31.50
2019-05-18T01:11:59.781Z,31.50
2019-05-18T01:14:28.541Z,31.50
2019-05-18T01:16:57.038Z,31.30
2019-05-18T01:19:25.566Z,31.20
2019-05-18T01:21:53.979Z,31.30
2019-05-18T01:24:23.136Z,31.20
2019-05-18T01:26:51.599Z,31.30
2019-05-18T01:29:20.106Z,31.40
2019-05-18T01:31:48.578Z,31.50
2019-05-18T01:34:17.203Z,31.50
2019-05-18T01:36:45.772Z,31.50
2019-05-18T01:39:14.637Z,31.60
2019-05-18T01:41:43.191Z,31.60
2019-05-18T01:44:11.676Z,31.60
2019-05-18T01:46:41.035Z,31.40
2019-05-18T01:49:09.646Z,31.30
2019-05-18T01:51:38.132Z,31.20
2019-05-18T01:54:06.616Z,31.20
2019-05-18T01:56:35.235Z,31.20
2019-05-18T01:59:03.654Z,31.20
2019-05-18T02:01:33.098Z,31.30
2019-05-18T02:04:01.657Z,31.30
2019-05-18T02:06:30.142Z,31.20
2019-05-18T02:08:58.571Z,31.20
2019-05-18T02:11:27.127Z,31.20
2019-05-18T02:13:55.633Z,31.20
2019-05-18T02:16:24.111Z,31.10
2019-05-18T02:18:52.655Z,31.10
2019-05-18T02:21:21.236Z,31.10
2019-05-18T02:23:49.799Z,30.90
2019-05-18T02:26:18.290Z,30.90
2019-05-18T02:28:46.936Z,30.90
2019-05-18T02:31:15.450Z,30.90
2019-05-18T02:33:44.041Z,31.00
2019-05-18T02:36:12.539Z,31.10
2019-05-18T02:38:41.091Z,31.20
2019-05-18T02:41:09.702Z,31.20
2019-05-18T02:43:38.261Z,31.20
2019-05-18T02:46:06.831Z,31.20
2019-05-18T02:48:48.563Z,31.30
2019-05-18T02:51:05.514Z,31.30
2019-05-18T02:53:34.049Z,31.40
2019-05-18T02:56:02.722Z,31.40
2019-05-18T02:58:31.248Z,31.40
2019-05-18T03:00:59.831Z,31.30
2019-05-18T03:03:29.414Z,31.30
2019-05-18T03:05:57.906Z,31.30
2019-05-18T03:08:26.379Z,31.30
2019-05-18T03:10:55.009Z,31.40
2019-05-18T03:13:23.548Z,31.40
2019-05-18T03:15:51.990Z,31.40
2019-05-18T03:18:20.677Z,31.50
2019-05-18T03:20:49.158Z,31.50
2019-05-18T03:23:17.803Z,31.30
2019-05-18T03:25:46.441Z,31.10
2019-05-18T03:28:15.073Z,31.00
2019-05-18T03:30:43.624Z,30.70
2019-05-18T03:33:12.189Z,30.60
2019-05-18T03:35:40.623Z,30.70
2019-05-18T03:38:09.126Z,30.90
2019-05-18T03:40:37.665Z,31.00
2019-05-18T03:43:06.148Z,31.20
2019-05-18T03:45:34.629Z,31.30
2019-05-18T03:48:03.178Z,31.50
2019-05-18T03:50:31.589Z,31.60
2019-05-18T03:53:00.083Z,31.70
2019-05-18T03:55:28.764Z,31.70
2019-05-18T03:57:57.312Z,31.60
2019-05-18T04:00:25.895Z,31.40
2019-05-18T04:02:54.534Z,31.40
2019-05-18T04:05:23.976Z,31.30
2019-05-18T04:07:52.490Z,31.20
2019-05-18T04:10:26.884Z,31.20
2019-05-18T04:12:55.432Z,31.10
2019-05-18T04:15:23.843Z,31.10
2019-05-18T04:17:52.409Z,31.10
2019-05-18T04:20:20.869Z,31.20
2019-05-18T04:22:49.354Z,31.40
2019-05-18T04:25:17.857Z,31.60
2019-05-18T04:27:46.405Z,31.80
2019-05-18T04:30:14.966Z,31.60
2019-05-18T04:32:43.463Z,31.70
2019-05-18T04:35:11.999Z,31.70
2019-05-18T04:37:40.486Z,31.70
2019-05-18T04:40:09.447Z,31.50
2019-05-18T04:42:37.951Z,31.00
2019-05-18T04:45:06.922Z,31.00
2019-05-18T04:47:35.549Z,31.20
2019-05-18T04:50:06.488Z,31.20
2019-05-18T04:52:35.134Z,31.40
2019-05-18T04:55:04.202Z,31.20
2019-05-18T04:57:32.663Z,31.20
2019-05-18T05:00:01.214Z,31.30
2019-05-18T05:02:29.669Z,31.40
2019-05-18T05:04:58.342Z,31.50
2019-05-18T05:07:27.789Z,31.60
2019-05-18T05:09:56.228Z,31.60
2019-05-18T05:12:24.807Z,31.70
2019-05-18T05:14:53.237Z,31.70
2019-05-18T05:17:21.878Z,31.60
2019-05-18T05:19:50.458Z,31.80
2019-05-18T05:22:19.030Z,31.40
2019-05-18T05:24:47.676Z,31.50
2019-05-18T05:27:16.107Z,31.70
2019-05-18T05:29:44.744Z,31.90
2019-05-18T05:32:13.387Z,31.90
2019-05-18T05:34:41.968Z,31.70
2019-05-18T05:37:10.497Z,31.70
2019-05-18T05:39:39.213Z,31.20
2019-05-18T05:42:07.697Z,31.80
2019-05-18T05:44:36.309Z,32.20
2019-05-18T05:47:04.809Z,32.40
2019-05-18T05:49:33.366Z,32.60
2019-05-18T05:52:01.930Z,32.90
2019-05-18T05:54:30.558Z,33.10
2019-05-18T05:56:59.112Z,32.70
2019-05-18T05:59:27.643Z,32.40
2019-05-18T06:01:56.275Z,32.40
2019-05-18T06:04:24.813Z,32.40
2019-05-18T06:06:53.341Z,32.40
2019-05-18T06:09:22.857Z,32.60
2019-05-18T06:11:51.337Z,32.70
2019-05-18T06:14:19.875Z,32.70
2019-05-18T06:16:48.465Z,32.90
2019-05-18T06:19:17.035Z,33.10
2019-05-18T06:21:45.597Z,33.30
2019-05-18T06:24:14.154Z,33.20
2019-05-18T06:26:42.638Z,33.30
2019-05-18T06:29:11.207Z,33.50
2019-05-18T06:31:39.741Z,33.60
2019-05-18T06:34:08.333Z,33.70
2019-05-18T06:36:36.870Z,33.80
2019-05-18T06:39:07.113Z,33.80
2019-05-18T06:41:35.608Z,34.00
2019-05-18T06:44:04.555Z,33.90
2019-05-18T06:46:33.035Z,34.10
2019-05-18T06:49:01.545Z,34.30
2019-05-18T06:51:30.169Z,34.40
2019-05-18T06:53:58.710Z,34.40
2019-05-18T06:56:27.374Z,34.60
2019-05-18T06:58:55.855Z,34.80
2019-05-18T07:01:24.466Z,34.60
2019-05-18T07:03:53.063Z,34.70
2019-05-18T07:06:21.593Z,34.80
2019-05-18T07:08:50.303Z,34.80
2019-05-18T07:11:19.904Z,35.00
2019-05-18T07:13:48.495Z,35.10
2019-05-18T07:16:17.019Z,35.20
2019-05-18T07:18:45.597Z,35.30
2019-05-18T07:21:21.762Z,35.30
2019-05-18T07:23:44.591Z,35.40
2019-05-18T07:26:13.145Z,35.50
2019-05-18T07:28:41.873Z,35.70
2019-05-18T07:31:10.449Z,35.80
2019-05-18T07:33:39.109Z,35.80
2019-05-18T07:36:07.663Z,35.40
2019-05-18T07:38:36.329Z,35.60
2019-05-18T07:41:04.935Z,35.70
2019-05-18T07:43:33.577Z,35.70
2019-05-18T07:46:02.147Z,35.90
2019-05-18T07:48:30.721Z,35.30
2019-05-18T07:50:59.287Z,35.50
2019-05-18T07:53:27.879Z,35.50
2019-05-18T07:55:56.370Z,35.70
2019-05-18T07:58:24.991Z,35.80
2019-05-18T08:00:53.548Z,35.90
2019-05-18T08:03:22.182Z,35.90
2019-05-18T08:05:50.778Z,35.80
2019-05-18T08:08:19.287Z,35.50
2019-05-18T08:10:47.827Z,35.40
2019-05-18T08:13:17.416Z,35.50
2019-05-18T08:15:45.999Z,35.50
2019-05-18T08:18:14.652Z,35.40
2019-05-18T08:20:43.175Z,35.40
2019-05-18T08:23:11.725Z,35.40
2019-05-18T08:25:40.288Z,35.50
2019-05-18T08:28:08.758Z,35.60
2019-05-18T08:30:37.319Z,35.80
2019-05-18T08:33:05.851Z,36.00
2019-05-18T08:35:34.351Z,36.00
2019-05-18T08:38:02.814Z,36.20
2019-05-18T08:40:31.469Z,36.10
2019-05-18T08:42:59.957Z,36.00
2019-05-18T08:45:28.449Z,35.90
2019-05-18T08:47:57.063Z,36.10
2019-05-18T08:50:25.544Z,36.20
2019-05-18T08:52:54.105Z,36.30
2019-05-18T08:55:22.591Z,36.30
2019-05-18T08:57:51.088Z,36.50
2019-05-18T09:00:19.680Z,36.70
2019-05-18T09:02:48.238Z,36.40
2019-05-18T09:05:16.729Z,36.30
2019-05-18T09:07:45.236Z,36.20
2019-05-18T09:10:14.803Z,36.30
2019-05-18T09:12:43.319Z,36.30
2019-05-18T09:15:12.778Z,36.40
2019-05-18T09:17:42.292Z,36.60
2019-05-18T09:20:10.739Z,36.90
2019-05-18T09:22:39.307Z,36.70
2019-05-18T09:25:09.149Z,36.10
2019-05-18T09:27:37.721Z,36.10
2019-05-18T09:30:07.356Z,36.40
2019-05-18T09:32:36.031Z,36.80
2019-05-18T09:35:06.462Z,36.20
2019-05-18T09:37:34.951Z,36.10
2019-05-18T09:40:05.627Z,36.50
2019-05-18T09:42:34.078Z,36.60
2019-05-18T09:45:02.633Z,36.30
2019-05-18T09:47:31.183Z,36.00
2019-05-18T09:49:59.677Z,36.10
2019-05-18T09:52:44.137Z,36.30
2019-05-18T09:54:58.324Z,36.20
2019-05-18T09:57:26.728Z,35.80
2019-05-18T09:59:55.209Z,36.10
2019-05-18T10:02:23.687Z,35.80
2019-05-18T10:04:52.695Z,36.10
2019-05-18T10:07:21.113Z,36.30
2019-05-18T10:09:49.752Z,36.30
2019-05-18T10:12:18.363Z,36.20
2019-05-18T10:14:46.860Z,36.20
2019-05-18T10:17:16.422Z,36.00
2019-05-18T10:19:44.901Z,36.30
2019-05-18T10:22:13.392Z,36.70
2019-05-18T10:24:42.068Z,36.80
2019-05-18T10:27:10.545Z,36.80
2019-05-18T10:29:39.044Z,37.00
2019-05-18T10:32:07.673Z,37.10
2019-05-18T10:34:36.077Z,36.80
2019-05-18T10:37:04.557Z,37.30
2019-05-18T10:39:33.159Z,37.60
2019-05-18T10:42:01.654Z,37.30
2019-05-18T10:44:30.151Z,37.50
2019-05-18T10:46:58.752Z,37.60
2019-05-18T10:49:27.310Z,37.50
2019-05-18T10:51:55.811Z,37.50
2019-05-18T10:54:24.445Z,37.20
2019-05-18T10:56:53.041Z,37.30
2019-05-18T10:59:21.448Z,37.50
2019-05-18T11:01:49.981Z,37.60
2019-05-18T11:04:18.458Z,37.40
2019-05-18T11:06:47.017Z,37.50
2019-05-18T11:09:15.553Z,36.70
2019-05-18T11:11:44.103Z,36.60
2019-05-18T11:14:12.598Z,36.80
2019-05-18T11:16:41.273Z,36.20
2019-05-18T11:19:10.624Z,36.70
2019-05-18T11:21:40.761Z,36.50
2019-05-18T11:24:09.344Z,36.80
2019-05-18T11:26:37.898Z,37.00
2019-05-18T11:29:06.475Z,37.00
2019-05-18T11:31:34.960Z,36.90
2019-05-18T11:34:03.451Z,37.00
2019-05-18T11:36:32.020Z,36.90
2019-05-18T11:39:00.821Z,37.40
2019-05-18T11:41:29.307Z,37.50
2019-05-18T11:43:57.875Z,37.50
2019-05-18T11:46:26.690Z,37.50
2019-05-18T11:48:55.250Z,37.30
2019-05-18T11:51:23.822Z,37.40
2019-05-18T11:53:58.460Z,37.60
2019-05-18T11:56:22.679Z,37.90
2019-05-18T11:58:51.677Z,38.10
2019-05-18T12:01:20.356Z,37.90
2019-05-18T12:03:48.850Z,38.00
2019-05-18T12:06:17.439Z,37.80
2019-05-18T12:08:45.987Z,37.80
2019-05-18T12:11:15.128Z,37.80
2019-05-18T12:13:43.876Z,37.50
2019-05-18T12:16:12.543Z,37.80
2019-05-18T12:18:41.189Z,37.70
2019-05-18T12:21:10.862Z,37.90
2019-05-18T12:23:39.521Z,37.60
2019-05-18T12:26:08.157Z,37.80
2019-05-18T12:28:36.708Z,38.20
2019-05-18T12:31:05.238Z,38.40
2019-05-18T12:33:33.783Z,38.30
2019-05-18T12:36:02.408Z,38.40
2019-05-18T12:38:30.890Z,38.50
2019-05-18T12:40:59.435Z,38.40
2019-05-18T12:43:28.097Z,38.40
2019-05-18T12:45:56.576Z,38.70
2019-05-18T12:48:25.127Z,38.50
2019-05-18T12:50:53.804Z,37.90
2019-05-18T12:53:22.380Z,38.20
2019-05-18T12:55:50.960Z,38.10
2019-05-18T12:58:19.490Z,38.00
2019-05-18T13:00:47.984Z,38.30
2019-05-18T13:03:16.467Z,38.40
2019-05-18T13:05:45.006Z,38.30
2019-05-18T13:08:13.495Z,38.20
2019-05-18T13:10:41.966Z,38.00
2019-05-18T13:13:10.943Z,38.10
2019-05-18T13:15:39.490Z,38.20
2019-05-18T13:18:07.973Z,38.40
2019-05-18T13:20:36.459Z,38.30
2019-05-18T13:23:05.917Z,38.10
2019-05-18T13:25:34.417Z,38.00
2019-05-18T13:28:02.933Z,38.10
2019-05-18T13:30:31.317Z,38.30
2019-05-18T13:32:59.881Z,38.20
2019-05-18T13:35:28.385Z,37.70
2019-05-18T13:37:56.897Z,38.00
2019-05-18T13:40:25.609Z,38.00
2019-05-18T13:42:54.223Z,38.00
2019-05-18T13:45:22.961Z,38.30
2019-05-18T13:47:51.625Z,38.40
2019-05-18T13:50:20.234Z,38.10
2019-05-18T13:52:48.732Z,38.20
2019-05-18T13:55:17.367Z,37.90
2019-05-18T13:57:45.943Z,38.10
2019-05-18T14:00:16.077Z,38.00
2019-05-18T14:02:44.682Z,38.10
2019-05-18T14:05:13.243Z,37.80
2019-05-18T14:07:41.647Z,37.80
2019-05-18T14:10:12.461Z,37.90
2019-05-18T14:12:40.470Z,37.80
2019-05-18T14:15:09.023Z,37.90
2019-05-18T14:17:37.569Z,37.70
2019-05-18T14:20:06.132Z,37.70
2019-05-18T14:22:34.530Z,37.80
2019-05-18T14:25:18.846Z,38.00
2019-05-18T14:27:36.196Z,38.10
2019-05-18T14:30:06.010Z,38.30
2019-05-18T14:32:34.501Z,38.40
2019-05-18T14:35:02.997Z,38.00
2019-05-18T14:37:31.533Z,37.90
2019-05-18T14:40:00.037Z,37.90
2019-05-18T14:42:28.625Z,38.10
2019-05-18T14:44:57.218Z,37.90
2019-05-18T14:47:27.575Z,37.80
2019-05-18T14:49:55.862Z,37.70
2019-05-18T14:52:24.620Z,37.90
2019-05-18T14:54:53.187Z,38.20
2019-05-18T14:57:23.678Z,38.00
2019-05-18T14:59:51.966Z,38.10
2019-05-18T15:02:20.447Z,37.70
2019-05-18T15:04:48.875Z,37.80
2019-05-18T15:07:17.377Z,38.20
2019-05-18T15:09:46.251Z,38.10
2019-05-18T15:12:15.163Z,38.30
2019-05-18T15:14:43.726Z,38.10
2019-05-18T15:17:12.269Z,38.20
2019-05-18T15:19:40.814Z,38.20
2019-05-18T15:22:09.428Z,38.30
2019-05-18T15:24:37.921Z,38.50
2019-05-18T15:27:07.315Z,38.40
2019-05-18T15:29:35.956Z,38.50
2019-05-18T15:32:04.500Z,38.20
2019-05-18T15:34:32.867Z,38.50
2019-05-18T15:37:01.542Z,38.50
2019-05-18T15:39:29.981Z,38.50
2019-05-18T15:41:58.557Z,38.80
2019-05-18T15:44:27.102Z,39.00
2019-05-18T15:46:55.682Z,39.20
2019-05-18T15:49:24.297Z,38.60
2019-05-18T15:51:53.072Z,38.80
2019-05-18T15:54:21.660Z,39.00
2019-05-18T15:56:50.337Z,38.90
2019-05-18T15:59:18.985Z,39.30
2019-05-18T16:01:47.672Z,39.50
2019-05-18T16:04:16.246Z,39.80
2019-05-18T16:06:44.880Z,39.70
2019-05-18T16:09:13.365Z,39.90
2019-05-18T16:11:41.941Z,39.90
2019-05-18T16:14:10.562Z,39.90
2019-05-18T16:16:39.187Z,40.60
2019-05-18T16:19:07.816Z,41.50
2019-05-18T16:21:36.523Z,42.60
2019-05-18T16:24:05.082Z,43.50
2019-05-18T16:26:33.770Z,44.70
2019-05-18T16:29:03.257Z,45.60
2019-05-18T16:31:31.747Z,45.90
2019-05-18T16:34:00.311Z,46.70
2019-05-18T16:36:28.861Z,47.10
2019-05-18T16:38:57.551Z,47.50
2019-05-18T16:41:28.041Z,47.80
2019-05-18T16:43:56.409Z,48.20
2019-05-18T16:46:24.946Z,48.60
2019-05-18T16:48:53.647Z,48.80
2019-05-18T16:51:22.219Z,48.40
2019-05-18T16:53:50.782Z,48.30
2019-05-18T16:56:19.437Z,48.00
2019-05-18T16:58:48.068Z,46.80
2019-05-18T17:01:16.636Z,46.70
2019-05-18T17:03:45.112Z,46.90
2019-05-18T17:06:16.386Z,47.30
2019-05-18T17:08:44.131Z,47.10
2019-05-18T17:11:12.802Z,46.40
2019-05-18T17:13:41.403Z,45.50
2019-05-18T17:16:09.952Z,44.70
2019-05-18T17:18:38.430Z,43.90
2019-05-18T17:21:06.978Z,43.10
2019-05-18T17:23:35.666Z,42.40
2019-05-18T17:26:04.313Z,41.60
2019-05-18T17:28:32.878Z,41.20
2019-05-18T17:31:02.453Z,40.80
2019-05-18T17:33:30.999Z,40.20
2019-05-18T17:36:00.704Z,39.90
2019-05-18T17:38:29.424Z,38.60
2019-05-18T17:40:57.973Z,38.90
2019-05-18T17:43:26.566Z,38.70
2019-05-18T17:45:55.060Z,38.10
2019-05-18T17:48:23.635Z,37.80
2019-05-18T17:50:52.263Z,37.70
2019-05-18T17:53:20.797Z,37.40
2019-05-18T17:55:49.394Z,37.30
2019-05-18T17:58:17.988Z,37.10
2019-05-18T18:00:46.551Z,37.00
2019-05-18T18:03:15.208Z,36.90
2019-05-18T18:05:43.851Z,36.80
2019-05-18T18:08:12.411Z,36.80
2019-05-18T18:10:41.035Z,36.70
2019-05-18T18:13:09.703Z,36.50
2019-05-18T18:15:38.403Z,36.50
2019-05-18T18:18:06.956Z,36.50
2019-05-18T18:20:37.161Z,36.40
2019-05-18T18:23:06.127Z,36.40
2019-05-18T18:25:34.775Z,36.30
2019-05-18T18:28:03.281Z,36.20
2019-05-18T18:30:31.924Z,36.10
2019-05-18T18:33:01.435Z,36.00
2019-05-18T18:35:30.031Z,35.90
2019-05-18T18:37:58.591Z,35.90
2019-05-18T18:40:27.277Z,35.80
2019-05-18T18:42:55.855Z,35.70
2019-05-18T18:45:24.383Z,35.70
2019-05-18T18:47:53.020Z,35.50
2019-05-18T18:50:21.604Z,35.10
2019-05-18T18:52:50.235Z,34.90
2019-05-18T18:55:18.971Z,34.80
2019-05-18T18:57:47.501Z,34.80
2019-05-18T19:00:17.718Z,34.40
2019-05-18T19:02:46.286Z,34.60
2019-05-18T19:05:14.780Z,34.70
2019-05-18T19:07:43.374Z,34.60
2019-05-18T19:10:11.992Z,34.80
2019-05-18T19:12:40.547Z,34.70
2019-05-18T19:15:09.236Z,34.30
2019-05-18T19:17:37.950Z,34.40
2019-05-18T19:20:06.866Z,34.30
2019-05-18T19:22:35.388Z,34.10
2019-05-18T19:25:04.141Z,34.00
2019-05-18T19:27:32.770Z,33.90
2019-05-18T19:30:01.346Z,33.80
2019-05-18T19:32:29.824Z,33.80
2019-05-18T19:34:59.623Z,33.70
2019-05-18T19:37:28.137Z,33.70
2019-05-18T19:39:56.882Z,33.60
2019-05-18T19:42:25.601Z,33.60
2019-05-18T19:47:22.955Z,33.10
2019-05-18T19:52:20.269Z,33.00
2019-05-18T19:57:17.143Z,32.90
2019-05-18T19:59:45.852Z,33.00
2019-05-18T20:02:18.211Z,33.00
2019-05-18T20:05:03.932Z,32.90
2019-05-18T20:09:43.447Z,32.70
2019-05-18T20:12:12.092Z,32.40
2019-05-18T20:17:09.600Z,32.40
2019-05-18T20:19:39.658Z,32.50
2019-05-18T20:22:08.707Z,32.50
2019-05-18T20:24:37.168Z,32.50
2019-05-18T20:27:05.732Z,32.60
2019-05-18T20:29:36.370Z,32.80
2019-05-18T20:37:02.403Z,32.20
2019-05-18T20:41:59.212Z,31.70
2019-05-18T20:44:27.762Z,32.00
2019-05-18T20:46:56.334Z,31.60
2019-05-18T20:49:24.959Z,31.70
2019-05-18T20:51:53.664Z,31.70
2019-05-18T20:56:50.451Z,31.90
2019-05-18T20:59:19.082Z,32.30
2019-05-18T21:01:47.509Z,31.70
2019-05-18T21:11:42.710Z,32.00
2019-05-18T21:14:11.466Z,31.40
2019-05-18T21:16:40.305Z,31.90
2019-05-18T21:19:08.868Z,31.70
2019-05-18T21:21:37.389Z,31.70
2019-05-18T21:24:05.892Z,31.80
2019-05-18T21:26:34.491Z,31.80
2019-05-18T21:29:03.066Z,31.80
2019-05-18T21:31:32.253Z,31.40
2019-05-18T21:34:00.806Z,31.40
2019-05-18T21:36:29.221Z,31.60
2019-05-18T21:38:58.732Z,31.60
2019-05-18T21:41:29.555Z,31.50
2019-05-18T21:51:22.714Z,30.90
2019-05-18T21:53:51.136Z,30.80
2019-05-18T21:56:20.112Z,30.80
2019-05-18T21:58:49.045Z,31.20
2019-05-18T22:01:18.072Z,31.00
2019-05-18T22:03:48.310Z,30.90
2019-05-18T22:06:16.686Z,31.00
2019-05-18T22:08:45.105Z,30.70
2019-05-18T22:11:13.665Z,30.60
2019-05-18T22:13:42.090Z,31.00
2019-05-18T22:16:10.538Z,30.60
2019-05-18T22:18:39.134Z,30.40
2019-05-18T22:21:07.772Z,30.60
2019-05-18T22:23:36.274Z,30.80
2019-05-18T22:28:32.938Z,30.30
2019-05-18T22:33:29.697Z,30.00
2019-05-18T22:38:26.438Z,29.70
2019-05-18T22:40:56.013Z,29.80
2019-05-18T22:45:52.826Z,30.30
2019-05-18T22:48:21.454Z,30.20
2019-05-18T22:50:49.875Z,30.30
2019-05-18T22:53:18.321Z,30.50
2019-05-18T22:55:46.899Z,30.70
2019-05-18T22:58:15.315Z,30.70
2019-05-18T23:00:44.212Z,30.60
2019-05-18T23:03:12.770Z,30.40
2019-05-18T23:05:41.348Z,30.50
2019-05-18T23:08:09.867Z,30.50
2019-05-18T23:10:38.358Z,30.50
2019-05-18T23:13:06.932Z,30.50
2019-05-18T23:15:36.067Z,30.60
2019-05-18T23:18:04.651Z,30.70
2019-05-18T23:20:33.133Z,30.60
2019-05-18T23:23:01.656Z,30.50
2019-05-18T23:25:30.191Z,30.50
2019-05-18T23:27:58.772Z,30.40
2019-05-18T23:30:28.323Z,30.40
2019-05-18T23:32:56.768Z,30.40
2019-05-18T23:35:25.261Z,30.50
2019-05-18T23:37:53.703Z,30.50
2019-05-18T23:40:23.821Z,30.50
2019-05-18T23:42:53.185Z,30.50
2019-05-18T23:45:24.784Z,30.40
2019-05-18T23:47:53.262Z,30.30
2019-05-18T23:50:21.745Z,30.20
2019-05-18T23:52:50.225Z,30.00
2019-05-18T23:55:18.713Z,30.00
2019-05-18T23:57:47.217Z,29.90
